Midlothian, Virginia
Current Conditions -  °F | °C
As of 9:35 AM on Tuesday 27 Jan 2015 (Local Time) from KFCI Reporting Station
Overcast Overcast  
Wind Chill: 23°   Ceiling: 3000
Heat Index: 30°   Visibility: 3mi
Dew Point: 18°   Wind: 7mph
Humidity: 60%   Direction: 340°NNW
Pressure: 29.83"   Gusts: NA
Location:  37.51°N, 77.65°W
Report Text: KFCI 271435Z AUTO 34006KT 3SM FEW010 SCT024 OVC030 M01/M08 A2983 RMK AO1 P0001
Loading
Personal Weather Stations






























Interactive Weather Map New forecast layout! Learn more

10-Day Weather Forecast

Advertisements
Track Severe Weather on mobile